sensor_id;sensor_type;location;lat;lon;timestamp;pressure;altitude;pressure_sealevel;temperature;humidity
14293;BME280;62290;59.420;17.842;2023-05-24T00:00:32;101354.84;;;24.23;31.20
14293;BME280;62290;59.420;17.842;2023-05-24T00:03:02;101357.69;;;24.22;31.28
14293;BME280;62290;59.420;17.842;2023-05-24T00:05:30;101362.22;;;24.21;31.29
14293;BME280;62290;59.420;17.842;2023-05-24T00:07:58;101363.31;;;24.19;31.22
14293;BME280;62290;59.420;17.842;2023-05-24T00:10:26;101363.56;;;24.16;31.42
14293;BME280;62290;59.420;17.842;2023-05-24T00:12:55;101365.28;;;24.17;31.47
14293;BME280;62290;59.420;17.842;2023-05-24T00:15:23;101373.47;;;24.15;31.28
14293;BME280;62290;59.420;17.842;2023-05-24T00:17:51;101379.94;;;24.13;31.57
14293;BME280;62290;59.420;17.842;2023-05-24T00:20:21;101377.41;;;24.11;31.58
14293;BME280;62290;59.420;17.842;2023-05-24T00:22:49;101379.22;;;24.11;31.40
14293;BME280;62290;59.420;17.842;2023-05-24T00:25:17;101386.44;;;24.10;31.46
14293;BME280;62290;59.420;17.842;2023-05-24T00:27:45;101379.44;;;24.08;31.39
14293;BME280;62290;59.420;17.842;2023-05-24T00:30:13;101381.25;;;24.07;31.52
14293;BME280;62290;59.420;17.842;2023-05-24T00:32:41;101383.34;;;24.04;31.48
14293;BME280;62290;59.420;17.842;2023-05-24T00:35:09;101379.91;;;24.02;31.64
14293;BME280;62290;59.420;17.842;2023-05-24T00:37:39;101380.03;;;24.00;31.53
14293;BME280;62290;59.420;17.842;2023-05-24T00:40:11;101381.13;;;23.98;31.38
14293;BME280;62290;59.420;17.842;2023-05-24T00:42:39;101379.41;;;23.96;31.62
14293;BME280;62290;59.420;17.842;2023-05-24T00:45:08;101375.97;;;23.94;31.67
14293;BME280;62290;59.420;17.842;2023-05-24T00:47:37;101375.25;;;23.92;31.47
14293;BME280;62290;59.420;17.842;2023-05-24T00:50:06;101371.84;;;23.90;31.61
14293;BME280;62290;59.420;17.842;2023-05-24T00:52:35;101375.50;;;23.89;31.83
14293;BME280;62290;59.420;17.842;2023-05-24T00:55:06;101381.00;;;23.88;31.72
14293;BME280;62290;59.420;17.842;2023-05-24T00:57:35;101383.94;;;23.85;31.79
14293;BME280;62290;59.420;17.842;2023-05-24T01:00:04;101332.38;;;23.56;31.59
14293;BME280;62290;59.420;17.842;2023-05-24T01:02:33;101360.03;;;23.69;31.81
14293;BME280;62290;59.420;17.842;2023-05-24T01:05:04;101375.22;;;23.81;31.94
14293;BME280;62290;59.420;17.842;2023-05-24T01:07:43;101381.56;;;23.80;31.77
14293;BME280;62290;59.420;17.842;2023-05-24T01:10:24;101375.59;;;23.77;31.83
14293;BME280;62290;59.420;17.842;2023-05-24T01:13:00;101346.31;;;23.61;32.00
14293;BME280;62290;59.420;17.842;2023-05-24T01:15:38;101364.94;;;23.75;32.06
14293;BME280;62290;59.420;17.842;2023-05-24T01:18:13;101368.63;;;23.74;31.94
14293;BME280;62290;59.420;17.842;2023-05-24T01:20:43;101365.44;;;23.69;31.94
14293;BME280;62290;59.420;17.842;2023-05-24T01:23:31;101371.41;;;23.73;31.90
14293;BME280;62290;59.420;17.842;2023-05-24T01:26:17;101367.13;;;23.70;32.10
14293;BME280;62290;59.420;17.842;2023-05-24T01:28:49;101361.25;;;23.65;32.15
14293;BME280;62290;59.420;17.842;2023-05-24T01:31:18;101336.63;;;23.48;32.21
14293;BME280;62290;59.420;17.842;2023-05-24T01:33:48;101364.78;;;23.66;32.10
14293;BME280;62290;59.420;17.842;2023-05-24T01:36:18;101351.56;;;23.63;32.22
14293;BME280;62290;59.420;17.842;2023-05-24T01:38:47;101371.13;;;23.65;32.25
14293;BME280;62290;59.420;17.842;2023-05-24T01:41:29;101371.28;;;23.63;32.29
14293;BME280;62290;59.420;17.842;2023-05-24T01:44:07;101386.69;;;23.61;32.31
14293;BME280;62290;59.420;17.842;2023-05-24T01:46:38;101389.59;;;23.58;32.31
14293;BME280;62290;59.420;17.842;2023-05-24T01:49:17;101391.34;;;23.59;32.35
14293;BME280;62290;59.420;17.842;2023-05-24T01:51:49;101308.59;;;23.04;32.46
14293;BME280;62290;59.420;17.842;2023-05-24T01:54:20;101392.66;;;23.54;32.38
14293;BME280;62290;59.420;17.842;2023-05-24T01:56:51;101385.69;;;23.51;32.39
14293;BME280;62290;59.420;17.842;2023-05-24T01:59:23;101390.06;;;23.52;32.39
14293;BME280;62290;59.420;17.842;2023-05-24T02:01:53;101399.13;;;23.51;32.52
14293;BME280;62290;59.420;17.842;2023-05-24T02:04:23;101401.81;;;23.51;32.43
14293;BME280;62290;59.420;17.842;2023-05-24T02:06:52;101414.50;;;23.49;32.52
14293;BME280;62290;59.420;17.842;2023-05-24T02:09:20;101400.69;;;23.43;32.58
14293;BME280;62290;59.420;17.842;2023-05-24T02:11:48;101414.88;;;23.45;32.46
14293;BME280;62290;59.420;17.842;2023-05-24T02:14:16;101415.72;;;23.45;32.25
14293;BME280;62290;59.420;17.842;2023-05-24T02:16:47;101390.94;;;23.29;32.55
14293;BME280;62290;59.420;17.842;2023-05-24T02:19:17;101427.44;;;23.44;32.55
14293;BME280;62290;59.420;17.842;2023-05-24T02:21:46;101424.75;;;23.44;32.66
14293;BME280;62290;59.420;17.842;2023-05-24T02:24:14;101412.41;;;23.42;32.60
14293;BME280;62290;59.420;17.842;2023-05-24T02:26:42;101414.13;;;23.43;32.69
14293;BME280;62290;59.420;17.842;2023-05-24T02:29:10;101400.81;;;23.41;32.71
14293;BME280;62290;59.420;17.842;2023-05-24T02:31:38;101404.22;;;23.43;32.62
14293;BME280;62290;59.420;17.842;2023-05-24T02:34:08;101417.69;;;23.43;32.59
14293;BME280;62290;59.420;17.842;2023-05-24T02:36:36;101413.25;;;23.42;32.78
14293;BME280;62290;59.420;17.842;2023-05-24T02:39:04;101415.09;;;23.42;32.73
14293;BME280;62290;59.420;17.842;2023-05-24T02:41:32;101412.41;;;23.42;32.71
14293;BME280;62290;59.420;17.842;2023-05-24T02:44:00;101410.72;;;23.41;32.77
14293;BME280;62290;59.420;17.842;2023-05-24T02:46:28;101409.09;;;23.38;32.71
14293;BME280;62290;59.420;17.842;2023-05-24T02:48:56;101408.88;;;23.41;32.74
14293;BME280;62290;59.420;17.842;2023-05-24T02:51:26;101416.09;;;23.41;32.84
14293;BME280;62290;59.420;17.842;2023-05-24T02:53:54;101407.16;;;23.40;32.88
14293;BME280;62290;59.420;17.842;2023-05-24T02:56:22;101403.59;;;23.40;32.78
14293;BME280;62290;59.420;17.842;2023-05-24T02:58:53;101383.09;;;23.26;32.86
14293;BME280;62290;59.420;17.842;2023-05-24T03:01:21;101400.19;;;23.38;32.91
14293;BME280;62290;59.420;17.842;2023-05-24T03:03:51;101402.94;;;23.36;33.01
14293;BME280;62290;59.420;17.842;2023-05-24T03:06:20;101402.00;;;23.37;33.20
14293;BME280;62290;59.420;17.842;2023-05-24T03:08:49;101407.38;;;23.37;33.16
14293;BME280;62290;59.420;17.842;2023-05-24T03:11:18;101408.31;;;23.36;33.09
14293;BME280;62290;59.420;17.842;2023-05-24T03:13:48;101406.84;;;23.32;33.24
14293;BME280;62290;59.420;17.842;2023-05-24T03:16:16;101402.19;;;23.34;33.30
14293;BME280;62290;59.420;17.842;2023-05-24T03:18:46;101401.22;;;23.35;33.28
14293;BME280;62290;59.420;17.842;2023-05-24T03:21:16;101398.44;;;23.37;33.31
14293;BME280;62290;59.420;17.842;2023-05-24T03:23:46;101399.94;;;23.41;33.32
14293;BME280;62290;59.420;17.842;2023-05-24T03:26:16;101394.22;;;23.45;33.39
14293;BME280;62290;59.420;17.842;2023-05-24T03:28:44;101404.75;;;23.48;33.33
14293;BME280;62290;59.420;17.842;2023-05-24T03:31:13;101410.50;;;23.55;33.48
14293;BME280;62290;59.420;17.842;2023-05-24T03:33:42;101402.09;;;23.59;33.27
14293;BME280;62290;59.420;17.842;2023-05-24T03:36:10;101394.53;;;23.64;33.35
14293;BME280;62290;59.420;17.842;2023-05-24T03:38:38;101397.72;;;23.69;33.29
14293;BME280;62290;59.420;17.842;2023-05-24T03:41:07;101392.94;;;23.73;33.43
14293;BME280;62290;59.420;17.842;2023-05-24T03:43:36;101395.16;;;23.79;33.32
14293;BME280;62290;59.420;17.842;2023-05-24T03:46:07;101399.31;;;23.83;33.57
14293;BME280;62290;59.420;17.842;2023-05-24T03:48:35;101397.16;;;23.88;33.46
14293;BME280;62290;59.420;17.842;2023-05-24T03:51:03;101372.66;;;23.80;33.55
14293;BME280;62290;59.420;17.842;2023-05-24T03:53:33;101381.59;;;23.91;33.56
14293;BME280;62290;59.420;17.842;2023-05-24T03:56:01;101394.34;;;24.01;33.49
14293;BME280;62290;59.420;17.842;2023-05-24T03:58:30;101384.56;;;24.00;33.41
14293;BME280;62290;59.420;17.842;2023-05-24T04:00:59;101395.47;;;24.09;33.46
14293;BME280;62290;59.420;17.842;2023-05-24T04:03:28;101388.03;;;24.13;33.57
14293;BME280;62290;59.420;17.842;2023-05-24T04:05:56;101388.91;;;24.13;33.43
14293;BME280;62290;59.420;17.842;2023-05-24T04:08:24;101386.56;;;24.20;33.55
14293;BME280;62290;59.420;17.842;2023-05-24T04:10:52;101383.63;;;24.23;33.42
14293;BME280;62290;59.420;17.842;2023-05-24T04:13:21;101376.53;;;24.22;33.57
14293;BME280;62290;59.420;17.842;2023-05-24T04:15:49;101389.25;;;24.31;33.50
14293;BME280;62290;59.420;17.842;2023-05-24T04:18:18;101385.34;;;24.35;33.53
14293;BME280;62290;59.420;17.842;2023-05-24T04:20:47;101385.09;;;24.38;33.52
14293;BME280;62290;59.420;17.842;2023-05-24T04:23:15;101341.53;;;24.11;33.66
14293;BME280;62290;59.420;17.842;2023-05-24T04:25:43;101397.22;;;24.43;33.60
14293;BME280;62290;59.420;17.842;2023-05-24T04:28:11;101387.19;;;24.45;33.93
14293;BME280;62290;59.420;17.842;2023-05-24T04:30:40;101375.16;;;24.38;33.89
14293;BME280;62290;59.420;17.842;2023-05-24T04:33:11;101396.50;;;24.52;33.56
14293;BME280;62290;59.420;17.842;2023-05-24T04:35:42;101386.28;;;24.56;33.75
14293;BME280;62290;59.420;17.842;2023-05-24T04:38:10;101397.69;;;24.60;33.44
14293;BME280;62290;59.420;17.842;2023-05-24T04:40:38;101390.09;;;24.53;33.54
14293;BME280;62290;59.420;17.842;2023-05-24T04:43:07;101402.34;;;24.69;33.85
14293;BME280;62290;59.420;17.842;2023-05-24T04:45:36;101402.09;;;24.72;33.76
14293;BME280;62290;59.420;17.842;2023-05-24T04:48:05;101407.13;;;24.76;33.79
14293;BME280;62290;59.420;17.842;2023-05-24T04:50:33;101406.91;;;24.79;33.88
14293;BME280;62290;59.420;17.842;2023-05-24T04:53:04;101408.50;;;24.82;33.78
14293;BME280;62290;59.420;17.842;2023-05-24T04:55:32;101409.81;;;24.87;33.75
14293;BME280;62290;59.420;17.842;2023-05-24T04:58:01;101416.69;;;24.91;34.16
14293;BME280;62290;59.420;17.842;2023-05-24T05:00:30;101421.81;;;24.94;34.64
14293;BME280;62290;59.420;17.842;2023-05-24T05:02:58;101423.28;;;24.98;34.35
14293;BME280;62290;59.420;17.842;2023-05-24T05:05:26;101426.59;;;25.02;34.47
14293;BME280;62290;59.420;17.842;2023-05-24T05:07:54;101435.28;;;25.05;35.17
14293;BME280;62290;59.420;17.842;2023-05-24T05:10:24;101434.75;;;25.11;34.83
14293;BME280;62290;59.420;17.842;2023-05-24T05:12:52;101433.19;;;25.09;35.21
14293;BME280;62290;59.420;17.842;2023-05-24T05:15:22;101441.63;;;25.15;35.37
14293;BME280;62290;59.420;17.842;2023-05-24T05:17:50;101444.91;;;25.19;34.89
14293;BME280;62290;59.420;17.842;2023-05-24T05:20:18;101445.53;;;25.23;34.75
14293;BME280;62290;59.420;17.842;2023-05-24T05:22:47;101456.19;;;25.24;34.53
14293;BME280;62290;59.420;17.842;2023-05-24T05:25:15;101455.06;;;25.27;34.75
14293;BME280;62290;59.420;17.842;2023-05-24T05:27:45;101460.22;;;25.30;34.72
14293;BME280;62290;59.420;17.842;2023-05-24T05:30:13;101461.94;;;25.31;34.40
14293;BME280;62290;59.420;17.842;2023-05-24T05:32:41;101461.09;;;25.30;34.54
14293;BME280;62290;59.420;17.842;2023-05-24T05:35:10;101464.25;;;25.35;34.46
14293;BME280;62290;59.420;17.842;2023-05-24T05:37:38;101464.00;;;25.38;33.99
14293;BME280;62290;59.420;17.842;2023-05-24T05:40:06;101426.03;;;25.19;33.84
14293;BME280;62290;59.420;17.842;2023-05-24T05:42:35;101468.16;;;25.42;33.78
14293;BME280;62290;59.420;17.842;2023-05-24T05:45:05;101468.78;;;25.46;33.66
14293;BME280;62290;59.420;17.842;2023-05-24T05:47:34;101472.34;;;25.46;33.47
14293;BME280;62290;59.420;17.842;2023-05-24T05:50:02;101406.81;;;25.12;33.70
14293;BME280;62290;59.420;17.842;2023-05-24T05:52:31;101472.81;;;25.51;33.53
14293;BME280;62290;59.420;17.842;2023-05-24T05:54:59;101465.44;;;25.53;33.06
14293;BME280;62290;59.420;17.842;2023-05-24T05:57:27;101458.94;;;25.56;33.22
14293;BME280;62290;59.420;17.842;2023-05-24T05:59:55;101455.25;;;25.57;32.88
14293;BME280;62290;59.420;17.842;2023-05-24T06:02:24;101462.09;;;25.61;32.99
14293;BME280;62290;59.420;17.842;2023-05-24T06:04:52;101441.31;;;25.52;32.96
14293;BME280;62290;59.420;17.842;2023-05-24T06:07:21;101458.19;;;25.65;32.68
14293;BME280;62290;59.420;17.842;2023-05-24T06:09:49;101454.34;;;25.67;32.65
14293;BME280;62290;59.420;17.842;2023-05-24T06:12:17;101456.06;;;25.68;32.20
14293;BME280;62290;59.420;17.842;2023-05-24T06:14:45;101461.09;;;25.73;32.21
14293;BME280;62290;59.420;17.842;2023-05-24T06:17:13;101452.69;;;25.76;32.24
14293;BME280;62290;59.420;17.842;2023-05-24T06:19:43;101452.59;;;25.77;31.88
14293;BME280;62290;59.420;17.842;2023-05-24T06:22:11;101456.00;;;25.80;31.54
14293;BME280;62290;59.420;17.842;2023-05-24T06:24:39;101459.41;;;25.82;31.37
14293;BME280;62290;59.420;17.842;2023-05-24T06:27:07;101462.00;;;25.83;30.90
14293;BME280;62290;59.420;17.842;2023-05-24T06:29:35;101465.28;;;25.87;30.79
14293;BME280;62290;59.420;17.842;2023-05-24T06:32:04;101458.03;;;25.87;30.57
14293;BME280;62290;59.420;17.842;2023-05-24T06:34:32;101458.66;;;25.91;30.62
14293;BME280;62290;59.420;17.842;2023-05-24T06:37:02;101462.78;;;25.95;30.69
14293;BME280;62290;59.420;17.842;2023-05-24T06:39:30;101456.41;;;25.96;30.29
14293;BME280;62290;59.420;17.842;2023-05-24T06:41:58;101460.69;;;25.98;29.85
14293;BME280;62290;59.420;17.842;2023-05-24T06:44:30;101457.75;;;26.01;29.80
14293;BME280;62290;59.420;17.842;2023-05-24T06:47:00;101453.47;;;25.99;29.69
14293;BME280;62290;59.420;17.842;2023-05-24T06:49:28;101461.88;;;26.05;29.72
14293;BME280;62290;59.420;17.842;2023-05-24T06:51:56;101466.41;;;26.05;29.47
14293;BME280;62290;59.420;17.842;2023-05-24T06:54:26;101467.00;;;26.08;29.78
14293;BME280;62290;59.420;17.842;2023-05-24T06:56:54;101466.16;;;26.08;29.22
14293;BME280;62290;59.420;17.842;2023-05-24T06:59:22;101468.59;;;26.11;29.19
14293;BME280;62290;59.420;17.842;2023-05-24T07:01:50;101470.31;;;26.12;29.13
14293;BME280;62290;59.420;17.842;2023-05-24T07:04:25;101469.22;;;26.14;28.90
14293;BME280;62290;59.420;17.842;2023-05-24T07:06:54;101476.22;;;26.17;29.06
14293;BME280;62290;59.420;17.842;2023-05-24T07:09:22;101473.63;;;26.15;29.00
14293;BME280;62290;59.420;17.842;2023-05-24T07:11:52;101469.22;;;26.14;28.86
14293;BME280;62290;59.420;17.842;2023-05-24T07:14:20;101478.66;;;26.20;28.96
14293;BME280;62290;59.420;17.842;2023-05-24T07:16:49;101471.38;;;26.20;28.83
14293;BME280;62290;59.420;17.842;2023-05-24T07:19:17;101404.59;;;25.81;29.29
14293;BME280;62290;59.420;17.842;2023-05-24T07:21:47;101468.41;;;26.23;29.14
14293;BME280;62290;59.420;17.842;2023-05-24T07:24:16;101473.56;;;26.26;29.21
14293;BME280;62290;59.420;17.842;2023-05-24T07:26:43;101475.41;;;26.26;28.87
14293;BME280;62290;59.420;17.842;2023-05-24T07:29:13;101476.00;;;26.29;29.02
14293;BME280;62290;59.420;17.842;2023-05-24T07:31:41;101474.41;;;26.27;28.81
14293;BME280;62290;59.420;17.842;2023-05-24T07:34:09;101482.13;;;26.31;29.07
14293;BME280;62290;59.420;17.842;2023-05-24T07:36:37;101475.75;;;26.32;28.52
14293;BME280;62290;59.420;17.842;2023-05-24T07:39:06;101478.44;;;26.32;28.45
14293;BME280;62290;59.420;17.842;2023-05-24T07:41:35;101467.44;;;26.24;28.45
14293;BME280;62290;59.420;17.842;2023-05-24T07:44:03;101462.75;;;26.26;28.68
14293;BME280;62290;59.420;17.842;2023-05-24T07:46:33;101475.47;;;26.35;28.69
14293;BME280;62290;59.420;17.842;2023-05-24T07:49:01;101473.59;;;26.36;28.65
14293;BME280;62290;59.420;17.842;2023-05-24T07:51:29;101470.59;;;26.29;28.27
14293;BME280;62290;59.420;17.842;2023-05-24T07:53:58;101473.59;;;26.36;28.36
14293;BME280;62290;59.420;17.842;2023-05-24T07:56:26;101473.59;;;26.36;27.88
14293;BME280;62290;59.420;17.842;2023-05-24T07:58:54;101470.06;;;26.35;28.08
14293;BME280;62290;59.420;17.842;2023-05-24T08:01:29;101475.03;;;26.30;28.09
14293;BME280;62290;59.420;17.842;2023-05-24T08:03:59;101472.47;;;26.38;27.72
14293;BME280;62290;59.420;17.842;2023-05-24T08:06:27;101475.47;;;26.35;27.59
14293;BME280;62290;59.420;17.842;2023-05-24T08:08:55;101472.47;;;26.38;27.84
14293;BME280;62290;59.420;17.842;2023-05-24T08:11:23;101466.34;;;26.36;28.30
14293;BME280;62290;59.420;17.842;2023-05-24T08:13:51;101467.06;;;26.38;27.90
14293;BME280;62290;59.420;17.842;2023-05-24T08:16:19;101460.84;;;26.38;28.05
14293;BME280;62290;59.420;17.842;2023-05-24T08:18:47;101467.06;;;26.38;27.93
14293;BME280;62290;59.420;17.842;2023-05-24T08:21:19;101458.25;;;26.36;28.40
14293;BME280;62290;59.420;17.842;2023-05-24T08:23:48;101459.97;;;26.38;28.32
14293;BME280;62290;59.420;17.842;2023-05-24T08:26:16;101438.56;;;26.25;28.15
14293;BME280;62290;59.420;17.842;2023-05-24T08:28:46;101460.94;;;26.36;27.85
14293;BME280;62290;59.420;17.842;2023-05-24T08:31:14;101449.56;;;26.33;27.97
14293;BME280;62290;59.420;17.842;2023-05-24T08:33:44;101449.56;;;26.33;27.61
14293;BME280;62290;59.420;17.842;2023-05-24T08:36:16;101462.69;;;26.38;27.59
14293;BME280;62290;59.420;17.842;2023-05-24T08:38:45;101457.28;;;26.38;27.86
14293;BME280;62290;59.420;17.842;2023-05-24T08:41:13;101461.97;;;26.35;27.72
14293;BME280;62290;59.420;17.842;2023-05-24T08:43:41;101467.22;;;26.37;27.58
14293;BME280;62290;59.420;17.842;2023-05-24T08:46:11;101455.81;;;26.33;27.54
14293;BME280;62290;59.420;17.842;2023-05-24T08:48:44;101466.25;;;26.38;27.65
14293;BME280;62290;59.420;17.842;2023-05-24T08:51:13;101467.22;;;26.37;27.42
14293;BME280;62290;59.420;17.842;2023-05-24T08:53:44;101473.50;;;26.38;27.31
14293;BME280;62290;59.420;17.842;2023-05-24T08:56:16;101462.22;;;26.32;26.86
14293;BME280;62290;59.420;17.842;2023-05-24T08:58:44;101469.22;;;26.35;26.79
14293;BME280;62290;59.420;17.842;2023-05-24T09:01:13;101444.97;;;26.24;27.13
14293;BME280;62290;59.420;17.842;2023-05-24T09:03:45;101460.25;;;26.34;27.16
14293;BME280;62290;59.420;17.842;2023-05-24T09:06:16;101463.91;;;26.33;27.09
14293;BME280;62290;59.420;17.842;2023-05-24T09:08:46;101457.69;;;26.33;26.68
14293;BME280;62290;59.420;17.842;2023-05-24T09:11:18;101460.50;;;26.31;26.47
14293;BME280;62290;59.420;17.842;2023-05-24T09:13:47;101460.50;;;26.31;26.62
14293;BME280;62290;59.420;17.842;2023-05-24T09:16:15;101450.81;;;26.29;26.22
14293;BME280;62290;59.420;17.842;2023-05-24T09:18:43;101453.53;;;26.29;26.61
14293;BME280;62290;59.420;17.842;2023-05-24T09:21:11;101454.53;;;26.28;26.04
14293;BME280;62290;59.420;17.842;2023-05-24T09:23:40;101453.66;;;26.27;26.44
14293;BME280;62290;59.420;17.842;2023-05-24T09:26:09;101447.41;;;26.27;26.03
14293;BME280;62290;59.420;17.842;2023-05-24T09:28:37;101443.84;;;26.26;25.91
14293;BME280;62290;59.420;17.842;2023-05-24T09:31:07;101447.50;;;26.25;26.06
14293;BME280;62290;59.420;17.842;2023-05-24T09:33:35;101448.53;;;26.24;26.27
14293;BME280;62290;59.420;17.842;2023-05-24T09:36:04;101450.22;;;26.25;25.93
14293;BME280;62290;59.420;17.842;2023-05-24T09:38:33;101425.38;;;26.11;25.52
14293;BME280;62290;59.420;17.842;2023-05-24T09:41:04;101443.13;;;26.24;25.33
14293;BME280;62290;59.420;17.842;2023-05-24T09:43:46;101434.28;;;26.22;25.33
14293;BME280;62290;59.420;17.842;2023-05-24T09:46:16;101427.69;;;26.15;25.19
14293;BME280;62290;59.420;17.842;2023-05-24T09:48:54;101436.00;;;26.23;24.96
14293;BME280;62290;59.420;17.842;2023-05-24T09:51:22;101434.81;;;26.16;25.16
14293;BME280;62290;59.420;17.842;2023-05-24T09:53:55;101443.38;;;26.21;25.03
14293;BME280;62290;59.420;17.842;2023-05-24T09:56:23;101447.81;;;26.22;25.06
14293;BME280;62290;59.420;17.842;2023-05-24T09:58:53;101450.50;;;26.22;24.46
14293;BME280;62290;59.420;17.842;2023-05-24T10:01:23;101447.81;;;26.22;24.70
14293;BME280;62290;59.420;17.842;2023-05-24T10:03:53;101445.22;;;26.21;24.14
14293;BME280;62290;59.420;17.842;2023-05-24T10:06:21;101450.63;;;26.21;24.03
14293;BME280;62290;59.420;17.842;2023-05-24T10:08:51;101445.38;;;26.19;24.11
14293;BME280;62290;59.420;17.842;2023-05-24T10:11:20;101450.78;;;26.19;24.46
14293;BME280;62290;59.420;17.842;2023-05-24T10:13:48;101448.34;;;26.16;24.37
14293;BME280;62290;59.420;17.842;2023-05-24T10:16:18;101440.94;;;26.18;24.25
14293;BME280;62290;59.420;17.842;2023-05-24T10:18:46;101447.34;;;26.17;24.46
14293;BME280;62290;59.420;17.842;2023-05-24T10:21:14;101442.94;;;26.16;23.95
14293;BME280;62290;59.420;17.842;2023-05-24T10:23:50;101443.78;;;26.17;23.89
14293;BME280;62290;59.420;17.842;2023-05-24T10:26:20;101431.63;;;26.11;24.36
14293;BME280;62290;59.420;17.842;2023-05-24T10:28:54;101438.50;;;26.15;23.94
14293;BME280;62290;59.420;17.842;2023-05-24T10:31:30;101418.09;;;26.02;24.29
14293;BME280;62290;59.420;17.842;2023-05-24T10:34:00;101426.22;;;26.11;24.39
14293;BME280;62290;59.420;17.842;2023-05-24T10:36:34;101420.94;;;26.10;24.02
14293;BME280;62290;59.420;17.842;2023-05-24T10:39:08;101424.78;;;26.07;23.81
14293;BME280;62290;59.420;17.842;2023-05-24T10:41:38;101430.16;;;26.07;24.26
14293;BME280;62290;59.420;17.842;2023-05-24T10:44:10;101423.06;;;26.06;23.95
14293;BME280;62290;59.420;17.842;2023-05-24T10:47:02;101419.50;;;26.06;24.02
14293;BME280;62290;59.420;17.842;2023-05-24T10:49:33;101424.31;;;26.02;24.21
14293;BME280;62290;59.420;17.842;2023-05-24T10:52:06;101406.94;;;25.95;24.16
14293;BME280;62290;59.420;17.842;2023-05-24T10:54:35;101404.94;;;25.97;23.71
14293;BME280;62290;59.420;17.842;2023-05-24T10:57:07;101414.53;;;26.01;23.96
14293;BME280;62290;59.420;17.842;2023-05-24T10:59:36;101419.06;;;26.01;24.18
14293;BME280;62290;59.420;17.842;2023-05-24T11:02:07;101418.09;;;26.02;24.17
14293;BME280;62290;59.420;17.842;2023-05-24T11:04:40;101415.50;;;26.00;24.08
14293;BME280;62290;59.420;17.842;2023-05-24T11:07:09;101411.38;;;25.96;23.76
14293;BME280;62290;59.420;17.842;2023-05-24T11:09:39;101381.88;;;25.84;23.35
14293;BME280;62290;59.420;17.842;2023-05-24T11:12:14;101406.41;;;26.01;23.20
14293;BME280;62290;59.420;17.842;2023-05-24T11:14:47;101381.72;;;25.85;23.38
14293;BME280;62290;59.420;17.842;2023-05-24T11:17:17;101408.09;;;26.02;23.31
14293;BME280;62290;59.420;17.842;2023-05-24T11:19:47;101402.00;;;26.00;23.46
14293;BME280;62290;59.420;17.842;2023-05-24T11:22:16;101398.31;;;26.01;23.10
14293;BME280;62290;59.420;17.842;2023-05-24T11:24:46;101390.47;;;25.98;23.42
14293;BME280;62290;59.420;17.842;2023-05-24T11:27:15;101401.88;;;26.02;23.47
14293;BME280;62290;59.420;17.842;2023-05-24T11:29:45;101398.31;;;26.01;23.01
14293;BME280;62290;59.420;17.842;2023-05-24T11:32:14;101383.78;;;26.02;22.92
14293;BME280;62290;59.420;17.842;2023-05-24T11:34:45;101375.59;;;26.04;22.78
14293;BME280;62290;59.420;17.842;2023-05-24T11:37:14;101373.84;;;26.03;23.10
14293;BME280;62290;59.420;17.842;2023-05-24T11:39:48;101376.44;;;26.04;23.17
14293;BME280;62290;59.420;17.842;2023-05-24T11:42:17;101373.84;;;26.03;23.06
14293;BME280;62290;59.420;17.842;2023-05-24T11:44:47;101370.19;;;26.04;23.48
14293;BME280;62290;59.420;17.842;2023-05-24T11:47:15;101365.75;;;26.03;23.51
14293;BME280;62290;59.420;17.842;2023-05-24T11:49:48;101357.53;;;26.04;23.33
14293;BME280;62290;59.420;17.842;2023-05-24T11:52:16;101353.97;;;26.04;23.48
14293;BME280;62290;59.420;17.842;2023-05-24T11:54:44;101360.22;;;26.04;24.03
14293;BME280;62290;59.420;17.842;2023-05-24T11:57:12;101350.25;;;26.05;23.77
14293;BME280;62290;59.420;17.842;2023-05-24T11:59:40;101346.72;;;26.04;23.63
14293;BME280;62290;59.420;17.842;2023-05-24T12:02:08;101343.00;;;26.05;23.84
14293;BME280;62290;59.420;17.842;2023-05-24T12:04:37;101348.41;;;26.05;24.42
14293;BME280;62290;59.420;17.842;2023-05-24T12:07:10;101341.03;;;26.07;24.26
14293;BME280;62290;59.420;17.842;2023-05-24T12:09:39;101339.34;;;26.06;24.09
14293;BME280;62290;59.420;17.842;2023-05-24T12:12:07;101344.75;;;26.06;24.55
14293;BME280;62290;59.420;17.842;2023-05-24T12:14:37;101341.88;;;26.08;24.39
14293;BME280;62290;59.420;17.842;2023-05-24T12:17:05;101342.03;;;26.06;24.93
14293;BME280;62290;59.420;17.842;2023-05-24T12:19:42;101338.31;;;26.07;24.67
14293;BME280;62290;59.420;17.842;2023-05-24T12:22:11;101348.31;;;26.07;24.97
14293;BME280;62290;59.420;17.842;2023-05-24T12:24:39;101293.88;;;25.81;24.68
14293;BME280;62290;59.420;17.842;2023-05-24T12:27:08;101332.94;;;26.07;25.20
14293;BME280;62290;59.420;17.842;2023-05-24T12:29:38;101337.50;;;26.07;24.92
14293;BME280;62290;59.420;17.842;2023-05-24T12:32:17;101303.88;;;25.90;24.81
14293;BME280;62290;59.420;17.842;2023-05-24T12:34:48;101303.91;;;26.00;25.37
14293;BME280;62290;59.420;17.842;2023-05-24T12:37:16;101326.69;;;26.07;24.91
14293;BME280;62290;59.420;17.842;2023-05-24T12:39:45;101315.03;;;26.06;25.07
14293;BME280;62290;59.420;17.842;2023-05-24T12:42:13;101314.88;;;26.08;25.49
14293;BME280;62290;59.420;17.842;2023-05-24T12:44:41;101298.78;;;25.97;25.06
14293;BME280;62290;59.420;17.842;2023-05-24T12:47:10;101305.91;;;26.07;25.43
14293;BME280;62290;59.420;17.842;2023-05-24T12:49:41;101303.09;;;26.09;25.55
14293;BME280;62290;59.420;17.842;2023-05-24T12:52:09;101305.91;;;26.07;25.43